createdAt,value
2022-12-08T00:01:34.815Z,0.50
2022-12-08T00:04:02.130Z,0.50
2022-12-08T00:06:49.762Z,0.50
2022-12-08T00:09:26.765Z,0.50
2022-12-08T00:12:00.252Z,0.60
2022-12-08T00:14:31.860Z,0.60
2022-12-08T00:16:58.882Z,0.60
2022-12-08T00:19:26.083Z,0.60
2022-12-08T00:21:53.027Z,0.60
2022-12-08T00:24:20.158Z,0.60
2022-12-08T00:26:47.059Z,0.50
2022-12-08T00:29:17.309Z,0.50
2022-12-08T00:31:44.753Z,0.60
2022-12-08T00:34:12.921Z,0.60
2022-12-08T00:36:39.801Z,0.60
2022-12-08T00:39:06.732Z,0.60
2022-12-08T00:41:51.907Z,0.50
2022-12-08T00:44:18.995Z,0.50
2022-12-08T00:46:46.036Z,0.50
2022-12-08T00:49:12.808Z,0.50
2022-12-08T00:51:39.585Z,0.50
2022-12-08T00:54:06.673Z,0.50
2022-12-08T00:56:33.831Z,0.50
2022-12-08T00:59:00.842Z,0.50
2022-12-08T01:01:27.745Z,0.50
2022-12-08T01:03:54.589Z,0.50
2022-12-08T01:06:21.317Z,0.50
2022-12-08T01:08:48.096Z,0.50
2022-12-08T01:11:17.445Z,0.50
2022-12-08T01:13:44.289Z,0.50
2022-12-08T01:16:18.648Z,0.50
2022-12-08T01:18:45.441Z,0.50
2022-12-08T01:21:12.180Z,0.50
2022-12-08T01:23:38.865Z,0.40
2022-12-08T01:26:06.818Z,0.40
2022-12-08T01:28:33.809Z,0.40
2022-12-08T01:31:00.934Z,0.40
2022-12-08T01:33:27.889Z,0.30
2022-12-08T01:35:55.470Z,0.20
2022-12-08T01:38:22.592Z,0.20
2022-12-08T01:40:49.441Z,0.20
2022-12-08T01:43:17.190Z,0.10
2022-12-08T01:45:44.080Z,0.20
2022-12-08T01:48:19.103Z,0.10
2022-12-08T01:50:46.876Z,0.10
2022-12-08T01:53:32.862Z,0.10
2022-12-08T01:56:02.739Z,0.10
2022-12-08T01:58:35.197Z,0.10
2022-12-08T02:01:02.423Z,0.10
2022-12-08T02:03:35.976Z,0.10
2022-12-08T02:06:03.293Z,0.00
2022-12-08T02:08:30.092Z,0.00
2022-12-08T02:10:56.926Z,0.10
2022-12-08T02:13:23.758Z,0.00
2022-12-08T02:15:56.829Z,0.00
2022-12-08T02:18:42.695Z,0.00
2022-12-08T02:21:16.073Z,0.00
2022-12-08T02:24:03.746Z,0.00
2022-12-08T02:26:42.602Z,0.00
2022-12-08T02:29:25.129Z,0.00
2022-12-08T02:32:29.340Z,0.00
2022-12-08T02:35:18.713Z,0.00
2022-12-08T02:38:19.547Z,0.00
2022-12-08T02:41:11.109Z,0.00
2022-12-08T02:44:08.482Z,-0.10
2022-12-08T02:46:48.593Z,-0.10
2022-12-08T02:49:16.758Z,-0.10
2022-12-08T02:51:43.609Z,-0.20
2022-12-08T02:54:10.330Z,-0.20
2022-12-08T02:57:17.480Z,0.10
2022-12-08T03:00:17.143Z,-0.20
2022-12-08T03:03:08.058Z,-0.20
2022-12-08T03:05:56.206Z,-0.30
2022-12-08T03:08:51.393Z,-0.30
2022-12-08T03:11:30.480Z,-0.30
2022-12-08T03:13:59.390Z,-0.20
2022-12-08T03:16:28.306Z,-0.20
2022-12-08T03:19:19.857Z,-0.30
2022-12-08T03:22:02.813Z,-0.30
2022-12-08T03:24:37.498Z,-0.30
2022-12-08T03:27:14.907Z,-0.40
2022-12-08T03:29:41.720Z,-0.40
2022-12-08T03:32:23.318Z,-0.40
2022-12-08T03:34:50.642Z,-0.40
2022-12-08T03:37:17.441Z,-0.40
2022-12-08T03:39:44.196Z,-0.30
2022-12-08T03:42:10.982Z,-0.30
2022-12-08T03:44:37.737Z,-0.30
2022-12-08T03:47:04.612Z,-0.30
2022-12-08T03:49:31.326Z,-0.30
2022-12-08T03:51:58.027Z,-0.30
2022-12-08T03:54:24.784Z,-0.30
2022-12-08T03:56:51.488Z,-0.30
2022-12-08T03:59:18.260Z,-0.30
2022-12-08T04:01:45.079Z,-0.40
2022-12-08T04:04:11.870Z,-0.40
2022-12-08T04:06:38.620Z,-0.40
2022-12-08T04:09:05.339Z,-0.40
2022-12-08T04:11:32.050Z,-0.40
2022-12-08T04:13:58.817Z,-0.50
2022-12-08T04:16:26.628Z,-0.50
2022-12-08T04:18:53.507Z,-0.50
2022-12-08T04:21:20.268Z,-0.50
2022-12-08T04:23:47.069Z,-0.50
2022-12-08T04:26:13.986Z,-0.50
2022-12-08T04:28:40.791Z,-0.50
2022-12-08T04:31:07.618Z,-0.50
2022-12-08T04:33:35.316Z,-0.50
2022-12-08T04:36:03.110Z,-0.50
2022-12-08T04:38:29.912Z,-0.60
2022-12-08T04:40:56.642Z,-0.60
2022-12-08T04:43:23.403Z,-0.60
2022-12-08T04:45:50.348Z,-0.60
2022-12-08T04:48:17.136Z,-0.50
2022-12-08T04:50:44.836Z,-0.50
2022-12-08T04:53:12.104Z,-0.60
2022-12-08T04:55:43.800Z,-0.60
2022-12-08T04:58:14.429Z,-0.50
2022-12-08T05:00:41.841Z,-0.60
2022-12-08T05:03:08.757Z,-0.60
2022-12-08T05:05:35.536Z,-0.70
2022-12-08T05:08:02.594Z,-0.60
2022-12-08T05:10:29.419Z,-0.70
2022-12-08T05:12:56.158Z,-0.70
2022-12-08T05:15:22.898Z,-0.70
2022-12-08T05:17:49.727Z,-0.80
2022-12-08T05:20:16.547Z,-0.80
2022-12-08T05:22:43.740Z,-0.80
2022-12-08T05:25:10.444Z,-0.80
2022-12-08T05:27:37.467Z,-0.80
2022-12-08T05:30:05.112Z,-0.80
2022-12-08T05:32:32.060Z,-0.80
2022-12-08T05:34:58.772Z,-0.70
2022-12-08T05:37:25.505Z,-0.80
2022-12-08T05:39:52.245Z,-0.70
2022-12-08T05:42:24.357Z,-0.90
2022-12-08T05:44:51.595Z,-0.80
2022-12-08T05:47:18.338Z,-0.90
2022-12-08T05:49:45.141Z,-0.70
2022-12-08T05:52:11.934Z,-0.80
2022-12-08T05:54:38.763Z,-0.70
2022-12-08T05:57:05.749Z,-0.70
2022-12-08T05:59:32.651Z,-0.80
2022-12-08T06:01:59.500Z,-0.80
2022-12-08T06:04:26.417Z,-0.90
2022-12-08T06:06:53.143Z,-0.90
2022-12-08T06:09:19.911Z,-0.90
2022-12-08T06:11:47.291Z,-0.90
2022-12-08T06:14:14.082Z,-0.90
2022-12-08T06:16:40.980Z,-0.90
2022-12-08T06:19:07.770Z,-0.80
2022-12-08T06:21:34.829Z,-0.90
2022-12-08T06:24:01.602Z,-0.90
2022-12-08T06:26:29.043Z,-0.90
2022-12-08T06:28:55.906Z,-0.90
2022-12-08T06:31:24.787Z,-0.90
2022-12-08T06:33:51.978Z,-0.80
2022-12-08T06:36:19.681Z,-0.80
2022-12-08T06:38:46.622Z,-0.80
2022-12-08T06:41:13.665Z,-0.90
2022-12-08T06:43:41.201Z,-1.00
2022-12-08T06:46:10.573Z,-1.00
2022-12-08T06:48:37.392Z,-1.00
2022-12-08T06:51:08.702Z,-1.00
2022-12-08T06:53:35.454Z,-1.00
2022-12-08T06:56:02.186Z,-1.00
2022-12-08T06:58:29.015Z,-0.90
2022-12-08T07:00:55.821Z,-0.90
2022-12-08T07:03:22.682Z,-1.00
2022-12-08T07:05:49.491Z,-0.90
2022-12-08T07:08:16.385Z,-0.80
2022-12-08T07:10:43.233Z,-0.80
2022-12-08T07:13:09.967Z,-0.80
2022-12-08T07:15:36.848Z,-0.80
2022-12-08T07:18:03.759Z,-0.80
2022-12-08T07:20:30.512Z,-0.90
2022-12-08T07:22:57.481Z,-0.80
2022-12-08T07:25:24.319Z,-0.90
2022-12-08T07:27:52.706Z,-0.90
2022-12-08T07:30:19.602Z,-0.80
2022-12-08T07:32:46.381Z,-0.80
2022-12-08T07:35:13.415Z,-0.80
2022-12-08T07:37:40.262Z,-0.80
2022-12-08T07:40:08.065Z,-0.70
2022-12-08T07:42:35.086Z,-0.80
2022-12-08T07:45:02.345Z,-0.80
2022-12-08T07:47:29.132Z,-0.80
2022-12-08T07:49:55.844Z,-0.60
2022-12-08T07:52:23.407Z,-0.80
2022-12-08T07:54:50.173Z,-0.80
2022-12-08T07:57:17.024Z,-0.80
2022-12-08T07:59:43.797Z,-0.80
2022-12-08T08:02:25.411Z,-0.80
2022-12-08T08:04:53.000Z,-0.80
2022-12-08T08:07:19.878Z,-0.80
2022-12-08T08:09:46.703Z,-0.70
2022-12-08T08:15:00.888Z,-0.90
2022-12-08T08:17:28.585Z,-0.70
2022-12-08T08:19:55.592Z,-0.90
2022-12-08T08:22:22.373Z,-0.80
2022-12-08T08:24:49.131Z,-0.80
2022-12-08T08:27:15.910Z,-0.80
2022-12-08T08:29:42.699Z,-0.80
2022-12-08T08:32:09.501Z,-0.70
2022-12-08T08:34:36.389Z,-0.70
2022-12-08T08:37:03.216Z,-0.70
2022-12-08T08:39:31.817Z,-0.70
2022-12-08T08:41:58.577Z,-0.70
2022-12-08T08:44:25.647Z,-0.80
2022-12-08T08:46:52.405Z,-0.80
2022-12-08T08:49:19.180Z,-0.70
2022-12-08T08:51:46.181Z,-0.70
2022-12-08T08:54:12.941Z,-0.60
2022-12-08T08:56:39.682Z,-0.60
2022-12-08T08:59:06.625Z,-0.60
2022-12-08T09:01:34.092Z,-0.50
2022-12-08T09:04:01.464Z,-0.50
2022-12-08T09:06:28.717Z,-0.50
2022-12-08T09:08:55.797Z,-0.50
2022-12-08T09:11:23.627Z,-0.40
2022-12-08T09:13:51.190Z,-0.40
2022-12-08T09:16:18.329Z,-0.40
2022-12-08T09:18:45.171Z,-0.40
2022-12-08T09:21:15.231Z,-0.40
2022-12-08T09:23:42.417Z,-0.40
2022-12-08T09:26:09.158Z,-0.30
2022-12-08T09:28:35.935Z,-0.40
2022-12-08T09:31:02.861Z,-0.30
2022-12-08T09:33:29.621Z,-0.30
2022-12-08T09:35:56.495Z,-0.20
2022-12-08T09:38:23.369Z,-0.20
2022-12-08T09:40:51.825Z,-0.10
2022-12-08T09:43:51.667Z,-0.10
2022-12-08T09:46:19.199Z,0.00
2022-12-08T09:48:51.910Z,0.00
2022-12-08T09:51:18.690Z,0.00
2022-12-08T09:53:50.967Z,0.00
2022-12-08T09:56:19.772Z,0.10
2022-12-08T09:59:00.462Z,0.20
2022-12-08T10:01:35.164Z,0.20
2022-12-08T10:04:02.220Z,0.20
2022-12-08T10:06:47.314Z,0.30
2022-12-08T10:09:32.668Z,0.30
2022-12-08T10:12:20.038Z,0.30
2022-12-08T10:15:09.606Z,0.40
2022-12-08T10:17:40.284Z,0.30
2022-12-08T10:20:21.683Z,0.40
2022-12-08T10:22:51.016Z,0.40
2022-12-08T10:25:33.393Z,0.50
2022-12-08T10:28:00.163Z,0.50
2022-12-08T10:30:27.021Z,0.50
2022-12-08T10:32:54.010Z,0.60
2022-12-08T10:35:21.823Z,0.60
2022-12-08T10:38:01.591Z,0.70
2022-12-08T10:40:29.675Z,0.70
2022-12-08T10:42:57.625Z,0.70
2022-12-08T10:45:29.643Z,0.80
2022-12-08T10:48:04.438Z,0.80
2022-12-08T10:50:33.955Z,0.80
2022-12-08T10:53:01.741Z,0.80
2022-12-08T10:55:28.883Z,0.90
2022-12-08T10:57:55.668Z,1.00
2022-12-08T11:00:25.182Z,1.10
2022-12-08T11:02:53.302Z,1.00
2022-12-08T11:05:20.627Z,1.00
2022-12-08T11:07:52.170Z,1.10
2022-12-08T11:10:19.687Z,1.10
2022-12-08T11:12:46.567Z,1.10
2022-12-08T11:15:16.675Z,1.20
2022-12-08T11:17:45.885Z,1.20
2022-12-08T11:20:19.701Z,1.20
2022-12-08T11:22:54.312Z,1.30
2022-12-08T11:25:22.817Z,1.30
2022-12-08T11:27:50.338Z,1.30
2022-12-08T11:30:21.220Z,1.30
2022-12-08T11:33:09.337Z,1.30
2022-12-08T11:35:40.294Z,1.30
2022-12-08T11:38:22.671Z,1.40
2022-12-08T11:41:03.649Z,1.50
2022-12-08T11:43:49.214Z,1.50
2022-12-08T11:46:25.318Z,1.50
2022-12-08T11:49:06.358Z,1.50
2022-12-08T11:51:56.009Z,1.70
2022-12-08T11:54:24.512Z,1.70
2022-12-08T11:56:56.183Z,1.70
2022-12-08T11:59:38.370Z,1.70
2022-12-08T12:02:05.573Z,1.70
2022-12-08T12:04:37.324Z,1.80
2022-12-08T12:07:15.291Z,1.80
2022-12-08T12:09:45.118Z,1.90
2022-12-08T12:12:39.442Z,2.00
2022-12-08T12:15:34.783Z,2.00
2022-12-08T12:18:04.547Z,2.10
2022-12-08T12:20:43.092Z,2.10
2022-12-08T12:23:17.173Z,2.20
2022-12-08T12:25:51.214Z,2.20
2022-12-08T12:28:17.984Z,2.20
2022-12-08T12:31:04.988Z,2.20
2022-12-08T12:33:32.113Z,2.30
2022-12-08T12:36:01.516Z,2.30
2022-12-08T12:38:54.927Z,2.40
2022-12-08T12:41:29.660Z,2.50
2022-12-08T12:44:08.677Z,2.50
2022-12-08T12:46:53.884Z,2.50
2022-12-08T12:49:39.254Z,2.50
2022-12-08T12:52:23.981Z,2.60
2022-12-08T12:54:50.749Z,2.60
2022-12-08T12:57:20.577Z,2.60
2022-12-08T12:59:54.688Z,2.70
2022-12-08T13:02:38.450Z,2.70
2022-12-08T13:05:27.720Z,2.70
2022-12-08T13:08:19.309Z,2.70
2022-12-08T13:11:04.255Z,2.90
2022-12-08T13:13:31.023Z,2.80
2022-12-08T13:16:15.405Z,2.90
2022-12-08T13:18:48.781Z,2.90
2022-12-08T13:21:18.705Z,2.90
2022-12-08T13:24:08.359Z,2.90
2022-12-08T13:26:36.973Z,3.00
2022-12-08T13:29:05.273Z,3.10
2022-12-08T13:31:58.146Z,3.10
2022-12-08T13:34:39.339Z,3.10
2022-12-08T13:37:12.337Z,3.10
2022-12-08T13:39:43.657Z,3.20
2022-12-08T13:42:13.497Z,3.20
2022-12-08T13:46:04.321Z,3.30
2022-12-08T13:48:30.107Z,3.30
2022-12-08T13:57:11.506Z,3.30
2022-12-08T13:59:43.423Z,3.30
2022-12-08T14:02:42.056Z,3.40
2022-12-08T14:05:26.603Z,3.30
2022-12-08T14:07:59.237Z,3.30
2022-12-08T14:10:30.563Z,3.30
2022-12-08T14:13:05.491Z,3.40
2022-12-08T14:15:38.683Z,3.40
2022-12-08T14:18:05.952Z,3.40
2022-12-08T14:20:51.729Z,3.40
2022-12-08T14:23:20.839Z,3.50
2022-12-08T14:25:47.802Z,3.40
2022-12-08T14:28:14.555Z,3.40
2022-12-08T14:30:41.339Z,3.50
2022-12-08T14:33:12.713Z,3.60
2022-12-08T14:35:39.843Z,3.50
2022-12-08T14:38:17.129Z,3.50
2022-12-08T14:40:45.284Z,3.50
2022-12-08T14:43:14.934Z,3.50
2022-12-08T14:45:44.879Z,3.50
2022-12-08T14:48:30.512Z,3.50
2022-12-08T14:51:03.204Z,3.50
2022-12-08T14:53:39.633Z,3.50
2022-12-08T14:56:37.064Z,3.50
2022-12-08T14:59:23.080Z,3.50
2022-12-08T15:01:51.029Z,3.50
2022-12-08T15:04:19.845Z,3.50
2022-12-08T15:07:03.215Z,3.50
2022-12-08T15:09:32.345Z,3.40
2022-12-08T15:12:06.607Z,3.40
2022-12-08T15:14:37.555Z,3.40
2022-12-08T15:17:04.744Z,3.30
2022-12-08T15:19:33.282Z,3.30
2022-12-08T15:22:12.322Z,3.30
2022-12-08T15:24:39.120Z,3.30
2022-12-08T15:27:05.963Z,3.30
2022-12-08T15:29:32.886Z,3.30
2022-12-08T15:32:01.094Z,3.20
2022-12-08T15:34:27.862Z,3.20
2022-12-08T15:36:54.828Z,3.10
2022-12-08T15:39:36.250Z,3.10
2022-12-08T15:42:04.239Z,3.10
2022-12-08T15:44:32.756Z,3.00
2022-12-08T15:47:00.099Z,3.00
2022-12-08T15:49:26.973Z,2.90
2022-12-08T15:52:04.960Z,2.90
2022-12-08T15:54:37.818Z,2.80
2022-12-08T15:57:20.253Z,2.70
2022-12-08T15:59:51.293Z,2.70
2022-12-08T16:02:22.597Z,2.60
2022-12-08T16:07:38.261Z,2.50
2022-12-08T16:10:07.092Z,2.50
2022-12-08T16:15:59.274Z,2.40
2022-12-08T16:18:28.986Z,2.30
2022-12-08T16:21:09.651Z,2.20
2022-12-08T16:23:44.679Z,2.20
2022-12-08T16:26:28.374Z,2.10
2022-12-08T16:29:03.063Z,2.10
2022-12-08T16:31:30.403Z,2.00
2022-12-08T16:33:57.193Z,1.90
2022-12-08T16:36:23.916Z,1.80
2022-12-08T16:38:50.694Z,1.70
2022-12-08T16:41:36.114Z,1.70
2022-12-08T16:44:03.657Z,1.60
2022-12-08T16:46:30.710Z,1.60
2022-12-08T16:48:58.890Z,1.60
2022-12-08T16:51:27.280Z,1.50
2022-12-08T16:53:57.969Z,1.50
2022-12-08T16:56:30.584Z,1.40
2022-12-08T16:58:59.238Z,1.40
2022-12-08T17:01:29.133Z,1.30
2022-12-08T17:04:22.948Z,1.20
2022-12-08T17:06:42.770Z,1.10
2022-12-08T17:09:09.570Z,1.00
2022-12-08T17:11:42.596Z,1.00
2022-12-08T17:14:10.275Z,0.90
2022-12-08T17:16:37.164Z,0.90
2022-12-08T17:19:04.582Z,0.90
2022-12-08T17:21:32.139Z,0.90
2022-12-08T17:23:59.240Z,0.90
2022-12-08T17:26:29.283Z,0.90
2022-12-08T17:29:00.877Z,0.80
2022-12-08T17:31:30.204Z,0.70
2022-12-08T17:34:04.587Z,0.70
2022-12-08T17:36:31.349Z,0.70
2022-12-08T17:38:59.042Z,0.70
2022-12-08T17:41:25.959Z,0.70
2022-12-08T17:43:52.721Z,0.60
2022-12-08T17:46:19.798Z,0.60
2022-12-08T17:48:46.851Z,0.50
2022-12-08T17:51:13.643Z,0.50
2022-12-08T17:53:40.826Z,0.40
2022-12-08T17:56:14.321Z,0.40
2022-12-08T17:58:41.271Z,0.80
2022-12-08T18:01:09.274Z,0.90
2022-12-08T18:03:36.439Z,0.30
2022-12-08T18:06:10.660Z,0.30
2022-12-08T18:08:37.368Z,0.30
2022-12-08T18:11:05.018Z,0.20
2022-12-08T18:13:31.852Z,0.20
2022-12-08T18:15:58.595Z,0.20
2022-12-08T18:18:25.370Z,0.10
2022-12-08T18:20:52.244Z,0.10
2022-12-08T18:23:19.026Z,0.00
2022-12-08T18:25:45.786Z,0.00
2022-12-08T18:28:12.522Z,0.00
2022-12-08T18:30:39.888Z,0.00
2022-12-08T18:33:07.132Z,-0.10
2022-12-08T18:35:34.038Z,-0.10
2022-12-08T18:38:00.795Z,-0.10
2022-12-08T18:40:28.376Z,0.30
2022-12-08T18:42:55.216Z,-0.20
2022-12-08T18:45:22.885Z,-0.20
2022-12-08T18:47:50.638Z,-0.20
2022-12-08T18:50:17.767Z,-0.30
2022-12-08T18:52:45.292Z,-0.40
2022-12-08T18:55:12.145Z,-0.30
2022-12-08T18:57:39.445Z,-0.40
2022-12-08T19:00:08.108Z,-0.40
2022-12-08T19:02:36.164Z,-0.40
2022-12-08T19:05:03.090Z,-0.40
2022-12-08T19:07:29.978Z,-0.50
2022-12-08T19:09:56.735Z,-0.50
2022-12-08T19:12:23.490Z,-0.50
2022-12-08T19:14:50.370Z,-0.50
2022-12-08T19:17:17.122Z,-0.50
2022-12-08T19:19:43.938Z,-0.50
2022-12-08T19:22:10.804Z,-0.50
2022-12-08T19:24:37.576Z,-0.50
2022-12-08T19:27:05.761Z,-0.60
2022-12-08T19:29:32.525Z,-0.60
2022-12-08T19:32:00.320Z,-0.60
2022-12-08T19:34:27.456Z,-0.70
2022-12-08T19:36:54.297Z,-0.70
2022-12-08T19:39:41.060Z,-0.80
2022-12-08T19:42:36.603Z,-0.80
2022-12-08T19:45:12.262Z,-0.80
2022-12-08T19:47:39.723Z,-0.80
2022-12-08T19:50:25.977Z,-0.80
2022-12-08T19:52:53.214Z,-0.80
2022-12-08T19:55:20.542Z,-0.80
2022-12-08T19:57:47.294Z,-0.80
2022-12-08T20:00:14.384Z,-0.80
2022-12-08T20:02:41.963Z,-0.80
2022-12-08T20:05:11.092Z,-0.80
2022-12-08T20:07:38.133Z,-0.90
2022-12-08T20:10:06.598Z,-0.90
2022-12-08T20:12:33.630Z,-1.00
2022-12-08T20:15:00.556Z,-1.00
2022-12-08T20:17:27.383Z,-1.00
2022-12-08T20:19:54.316Z,-1.10
2022-12-08T20:22:21.087Z,-1.00
2022-12-08T20:24:56.428Z,-1.10
2022-12-08T20:27:26.672Z,-1.10
2022-12-08T20:29:53.487Z,-1.10
2022-12-08T20:32:20.242Z,-1.20
2022-12-08T20:34:47.102Z,-1.10
2022-12-08T20:37:14.006Z,-1.20
2022-12-08T20:39:40.908Z,-1.20
2022-12-08T20:42:10.350Z,-1.20
2022-12-08T20:44:43.201Z,-1.20
2022-12-08T20:47:11.117Z,-1.20
2022-12-08T20:49:38.425Z,-1.20
2022-12-08T20:52:05.597Z,-1.20
2022-12-08T20:54:32.473Z,-1.20
2022-12-08T20:56:59.337Z,-1.20
2022-12-08T20:59:26.981Z,-1.10
2022-12-08T21:01:54.100Z,-1.20
2022-12-08T21:04:24.080Z,-1.10
2022-12-08T21:06:51.276Z,-1.20
2022-12-08T21:09:18.229Z,-1.20
2022-12-08T21:11:45.424Z,-1.30
2022-12-08T21:14:12.556Z,-1.30
2022-12-08T21:16:39.360Z,-1.40
2022-12-08T21:19:06.373Z,-1.30
2022-12-08T21:21:33.318Z,-1.40
2022-12-08T21:24:01.075Z,-1.40
2022-12-08T21:26:28.401Z,-1.40
2022-12-08T21:28:55.326Z,-1.40
2022-12-08T21:31:22.536Z,-1.50
2022-12-08T21:33:49.915Z,-1.90
2022-12-08T21:36:18.373Z,-1.40
2022-12-08T21:38:45.610Z,-1.50
2022-12-08T21:41:37.632Z,-1.50
2022-12-08T21:44:05.421Z,-1.50
2022-12-08T21:46:33.115Z,-1.40
2022-12-08T21:48:59.961Z,-1.50
2022-12-08T21:51:28.119Z,-1.60
2022-12-08T21:53:55.071Z,-1.60
2022-12-08T21:56:22.042Z,-1.60
2022-12-08T21:58:49.529Z,-1.60
2022-12-08T22:01:16.538Z,-1.60
2022-12-08T22:03:43.570Z,-1.50
2022-12-08T22:06:13.564Z,-1.60
2022-12-08T22:08:41.164Z,-1.60
2022-12-08T22:11:08.436Z,-1.60
2022-12-08T22:13:36.290Z,-1.60
2022-12-08T22:16:07.544Z,-1.60
2022-12-08T22:18:34.706Z,-1.70
2022-12-08T22:21:02.554Z,-1.70
2022-12-08T22:23:29.364Z,-1.70
2022-12-08T22:25:57.984Z,-1.70
2022-12-08T22:28:25.466Z,-1.70
2022-12-08T22:30:52.401Z,-1.70
2022-12-08T22:33:19.452Z,-1.70
2022-12-08T22:35:56.206Z,-1.70
2022-12-08T22:38:22.885Z,-1.70
2022-12-08T22:40:49.713Z,-1.50
2022-12-08T22:43:16.462Z,-1.80
2022-12-08T22:45:43.436Z,-1.80
2022-12-08T22:48:10.632Z,-1.80
2022-12-08T22:50:37.461Z,-1.80
2022-12-08T22:53:04.269Z,-1.90
2022-12-08T22:55:34.127Z,-1.90
2022-12-08T22:58:01.072Z,-1.90
2022-12-08T23:00:28.114Z,-1.90
2022-12-08T23:02:54.923Z,-1.80
2022-12-08T23:05:21.804Z,-1.20
2022-12-08T23:07:48.736Z,-1.90
2022-12-08T23:10:15.629Z,-1.90
2022-12-08T23:12:42.504Z,-1.80
2022-12-08T23:15:09.579Z,-1.90
2022-12-08T23:17:36.598Z,-1.90
2022-12-08T23:20:04.212Z,-2.30
2022-12-08T23:22:31.392Z,-2.00
2022-12-08T23:25:00.384Z,-2.00
2022-12-08T23:27:27.161Z,-1.90
2022-12-08T23:29:54.200Z,-2.00
2022-12-08T23:32:21.459Z,-2.00
2022-12-08T23:34:48.582Z,-1.90
2022-12-08T23:37:15.476Z,-2.00
2022-12-08T23:39:45.111Z,-1.50
2022-12-08T23:42:13.335Z,-2.00
2022-12-08T23:44:40.208Z,-2.00
2022-12-08T23:47:07.270Z,-2.00
2022-12-08T23:49:34.137Z,-2.10
2022-12-08T23:52:00.918Z,-2.00
2022-12-08T23:54:27.649Z,-2.00
2022-12-08T23:56:54.569Z,-2.00
2022-12-08T23:59:22.129Z,-2.00
